createdAt,value
2023-01-26T00:01:15.190Z,1.50
2023-01-26T00:03:42.509Z,1.50
2023-01-26T00:06:11.968Z,1.50
2023-01-26T00:08:39.842Z,1.40
2023-01-26T00:11:08.588Z,1.40
2023-01-26T00:13:35.481Z,1.40
2023-01-26T00:16:03.673Z,1.40
2023-01-26T00:18:31.350Z,1.40
2023-01-26T00:20:59.339Z,1.40
2023-01-26T00:23:27.124Z,1.20
2023-01-26T00:25:53.744Z,1.30
2023-01-26T00:28:20.360Z,1.30
2023-01-26T00:30:47.092Z,1.30
2023-01-26T00:33:13.847Z,1.30
2023-01-26T00:35:44.297Z,1.30
2023-01-26T00:38:12.377Z,1.20
2023-01-26T00:40:39.998Z,1.20
2023-01-26T00:43:07.172Z,1.20
2023-01-26T00:45:35.747Z,1.30
2023-01-26T00:48:02.515Z,1.30
2023-01-26T00:50:29.176Z,1.30
2023-01-26T00:52:55.816Z,1.30
2023-01-26T00:55:22.614Z,1.30
2023-01-26T00:57:50.212Z,1.30
2023-01-26T01:00:17.797Z,1.30
2023-01-26T01:02:44.661Z,1.30
2023-01-26T01:05:11.963Z,1.30
2023-01-26T01:07:38.596Z,1.20
2023-01-26T01:10:05.579Z,1.30
2023-01-26T01:12:32.179Z,1.30
2023-01-26T01:14:58.811Z,1.30
2023-01-26T01:17:25.530Z,1.30
2023-01-26T01:19:52.176Z,1.30
2023-01-26T01:22:18.968Z,1.20
2023-01-26T01:24:45.592Z,1.20
2023-01-26T01:27:12.282Z,1.30
2023-01-26T01:29:39.075Z,1.30
2023-01-26T01:32:06.445Z,1.30
2023-01-26T01:34:33.058Z,1.30
2023-01-26T01:36:59.649Z,1.20
2023-01-26T01:39:26.287Z,1.30
2023-01-26T01:41:52.852Z,1.30
2023-01-26T01:44:22.246Z,1.30
2023-01-26T01:46:58.651Z,1.20
2023-01-26T01:49:33.588Z,1.20
2023-01-26T01:52:26.327Z,1.10
2023-01-26T01:55:01.873Z,1.10
2023-01-26T01:57:44.859Z,1.10
2023-01-26T02:03:19.005Z,1.00
2023-01-26T02:06:06.728Z,1.00
2023-01-26T02:08:46.594Z,1.10
2023-01-26T02:14:56.759Z,1.10
2023-01-26T02:17:24.474Z,1.00
2023-01-26T02:20:10.376Z,1.00
2023-01-26T02:22:42.187Z,0.90
2023-01-26T02:25:38.089Z,0.90
2023-01-26T02:28:05.119Z,1.00
2023-01-26T02:30:31.950Z,1.00
2023-01-26T02:32:58.723Z,1.00
2023-01-26T02:35:25.408Z,1.00
2023-01-26T02:37:52.053Z,1.00
2023-01-26T02:40:31.145Z,1.00
2023-01-26T02:42:57.784Z,1.00
2023-01-26T02:45:27.618Z,1.00
2023-01-26T02:47:54.288Z,0.90
2023-01-26T02:50:20.889Z,0.90
2023-01-26T02:52:47.501Z,0.90
2023-01-26T02:55:23.079Z,0.90
2023-01-26T02:57:51.574Z,0.80
2023-01-26T03:00:37.666Z,0.80
2023-01-26T03:03:12.455Z,0.70
2023-01-26T03:05:38.997Z,0.80
2023-01-26T03:08:06.078Z,0.80
2023-01-26T03:10:34.242Z,0.70
2023-01-26T03:13:00.934Z,0.70
2023-01-26T03:15:43.263Z,0.70
2023-01-26T03:18:29.883Z,0.80
2023-01-26T03:21:27.492Z,0.70
2023-01-26T03:24:12.954Z,0.70
2023-01-26T03:26:58.419Z,0.80
2023-01-26T03:29:26.585Z,0.80
2023-01-26T03:31:53.666Z,0.80
2023-01-26T03:34:20.494Z,0.80
2023-01-26T03:36:48.589Z,0.70
2023-01-26T03:39:34.206Z,0.80
2023-01-26T03:42:20.177Z,0.70
2023-01-26T03:45:05.777Z,0.70
2023-01-26T03:47:52.207Z,0.70
2023-01-26T03:50:37.411Z,0.70
2023-01-26T03:53:30.799Z,0.60
2023-01-26T03:56:16.352Z,0.60
2023-01-26T03:58:42.924Z,0.60
2023-01-26T04:01:10.855Z,0.70
2023-01-26T04:03:56.242Z,0.70
2023-01-26T04:06:41.281Z,0.70
2023-01-26T04:09:07.969Z,0.70
2023-01-26T04:11:34.622Z,0.80
2023-01-26T04:14:19.617Z,0.70
2023-01-26T04:17:05.125Z,0.60
2023-01-26T04:19:50.489Z,0.60
2023-01-26T04:22:17.073Z,0.70
2023-01-26T04:24:43.672Z,0.60
2023-01-26T04:27:11.677Z,0.70
2023-01-26T04:29:38.365Z,0.60
2023-01-26T04:32:05.743Z,0.60
2023-01-26T04:34:32.341Z,0.60
2023-01-26T04:36:58.936Z,0.60
2023-01-26T04:39:25.617Z,0.60
2023-01-26T04:41:52.302Z,0.60
2023-01-26T04:44:18.983Z,0.50
2023-01-26T04:46:47.139Z,0.60
2023-01-26T04:49:13.820Z,0.50
2023-01-26T04:51:40.852Z,0.50
2023-01-26T04:54:07.708Z,0.50
2023-01-26T04:56:35.672Z,0.60
2023-01-26T04:59:07.203Z,0.70
2023-01-26T05:01:34.160Z,0.60
2023-01-26T05:04:02.065Z,0.60
2023-01-26T05:06:29.126Z,0.60
2023-01-26T05:08:56.629Z,0.60
2023-01-26T05:11:23.553Z,0.60
2023-01-26T05:13:50.201Z,0.70
2023-01-26T05:16:17.276Z,0.70
2023-01-26T05:18:44.358Z,0.70
2023-01-26T05:21:11.368Z,0.60
2023-01-26T05:23:38.133Z,0.60
2023-01-26T05:26:05.035Z,0.60
2023-01-26T05:28:31.637Z,0.60
2023-01-26T05:30:58.226Z,0.50
2023-01-26T05:33:24.870Z,0.60
2023-01-26T05:35:53.039Z,0.60
2023-01-26T05:38:20.573Z,0.60
2023-01-26T05:40:47.212Z,0.60
2023-01-26T05:43:14.391Z,0.60
2023-01-26T05:45:41.118Z,0.70
2023-01-26T05:48:07.731Z,0.70
2023-01-26T05:50:34.497Z,0.70
2023-01-26T05:53:02.925Z,0.70
2023-01-26T05:55:29.821Z,0.70
2023-01-26T05:57:56.408Z,0.70
2023-01-26T06:00:23.835Z,0.70
2023-01-26T06:02:50.484Z,0.70
2023-01-26T06:05:17.189Z,0.70
2023-01-26T06:07:44.047Z,0.70
2023-01-26T06:10:11.462Z,0.60
2023-01-26T06:12:39.099Z,0.70
2023-01-26T06:15:07.616Z,0.80
2023-01-26T06:17:34.284Z,0.80
2023-01-26T06:20:00.979Z,0.80
2023-01-26T06:22:27.717Z,0.80
2023-01-26T06:24:54.325Z,0.70
2023-01-26T06:27:21.040Z,0.70
2023-01-26T06:29:47.702Z,0.70
2023-01-26T06:32:14.710Z,0.60
2023-01-26T06:34:41.475Z,0.60
2023-01-26T06:37:08.625Z,0.70
2023-01-26T06:39:35.479Z,0.70
2023-01-26T06:42:02.233Z,0.70
2023-01-26T06:44:28.832Z,0.60
2023-01-26T06:46:55.417Z,0.60
2023-01-26T06:49:22.058Z,0.60
2023-01-26T06:52:04.189Z,0.60
2023-01-26T06:54:30.933Z,0.70
2023-01-26T06:56:57.664Z,0.70
2023-01-26T06:59:24.366Z,0.70
2023-01-26T07:01:51.161Z,0.60
2023-01-26T07:04:18.316Z,0.70
2023-01-26T07:06:44.944Z,0.50
2023-01-26T07:09:12.245Z,0.50
2023-01-26T07:11:38.869Z,0.40
2023-01-26T07:14:05.538Z,0.50
2023-01-26T07:16:33.855Z,0.50
2023-01-26T07:19:01.144Z,0.50
2023-01-26T07:21:27.855Z,0.40
2023-01-26T07:23:56.200Z,0.40
2023-01-26T07:26:23.097Z,0.50
2023-01-26T07:28:49.716Z,0.50
2023-01-26T07:31:16.495Z,0.60
2023-01-26T07:33:43.192Z,0.50
2023-01-26T07:36:10.897Z,0.50
2023-01-26T07:38:38.218Z,0.50
2023-01-26T07:41:07.106Z,0.50
2023-01-26T07:43:35.481Z,0.40
2023-01-26T07:46:02.306Z,0.40
2023-01-26T07:48:32.015Z,0.50
2023-01-26T07:51:00.504Z,0.40
2023-01-26T07:53:29.161Z,0.40
2023-01-26T07:56:06.256Z,0.40
2023-01-26T07:58:33.259Z,0.50
2023-01-26T08:01:26.126Z,0.50
2023-01-26T08:03:56.053Z,0.40
2023-01-26T08:06:22.927Z,0.40
2023-01-26T08:08:51.138Z,0.50
2023-01-26T08:11:19.410Z,0.40
2023-01-26T08:13:46.183Z,0.50
2023-01-26T08:16:13.254Z,0.50
2023-01-26T08:18:42.262Z,0.40
2023-01-26T08:21:09.812Z,0.40
2023-01-26T08:23:36.773Z,0.40
2023-01-26T08:26:09.282Z,0.50
2023-01-26T08:28:36.646Z,0.60
2023-01-26T08:31:12.110Z,0.50
2023-01-26T08:33:41.477Z,0.40
2023-01-26T08:36:12.045Z,0.40
2023-01-26T08:38:38.862Z,0.40
2023-01-26T08:41:06.364Z,0.40
2023-01-26T08:43:33.191Z,0.40
2023-01-26T08:45:59.894Z,0.40
2023-01-26T08:48:27.202Z,0.40
2023-01-26T08:50:58.818Z,0.50
2023-01-26T08:53:26.387Z,0.40
2023-01-26T08:55:52.956Z,0.40
2023-01-26T08:58:20.432Z,0.40
2023-01-26T09:00:47.248Z,0.50
2023-01-26T09:03:14.096Z,0.50
2023-01-26T09:05:41.099Z,0.50
2023-01-26T09:08:09.851Z,0.40
2023-01-26T09:10:39.885Z,0.50
2023-01-26T09:13:06.718Z,0.60
2023-01-26T09:15:33.480Z,0.40
2023-01-26T09:18:01.121Z,0.50
2023-01-26T09:20:28.945Z,0.40
2023-01-26T09:22:56.466Z,0.40
2023-01-26T09:25:23.117Z,0.40
2023-01-26T09:27:49.724Z,0.40
2023-01-26T09:30:16.874Z,0.40
2023-01-26T09:32:43.510Z,0.40
2023-01-26T09:35:14.338Z,0.40
2023-01-26T09:37:43.648Z,0.40
2023-01-26T09:40:19.624Z,0.50
2023-01-26T09:43:05.024Z,0.50
2023-01-26T09:45:38.195Z,0.40
2023-01-26T09:48:11.777Z,0.30
2023-01-26T09:50:48.385Z,0.50
2023-01-26T09:53:18.543Z,0.40
2023-01-26T09:55:46.813Z,0.40
2023-01-26T09:58:20.702Z,0.40
2023-01-26T10:00:50.444Z,0.40
2023-01-26T10:03:50.942Z,0.40
2023-01-26T10:06:31.160Z,0.40
2023-01-26T10:09:22.504Z,0.20
2023-01-26T10:11:57.927Z,0.30
2023-01-26T10:14:46.156Z,0.30
2023-01-26T10:17:42.960Z,0.30
2023-01-26T10:20:15.167Z,0.20
2023-01-26T10:22:52.131Z,0.20
2023-01-26T10:25:39.880Z,0.20
2023-01-26T10:28:38.176Z,0.20
2023-01-26T10:31:12.249Z,0.20
2023-01-26T10:33:41.621Z,0.30
2023-01-26T10:36:12.205Z,0.30
2023-01-26T10:38:41.539Z,0.20
2023-01-26T10:41:29.260Z,0.10
2023-01-26T10:44:02.439Z,0.10
2023-01-26T10:46:35.662Z,0.20
2023-01-26T10:49:14.876Z,0.20
2023-01-26T10:51:46.825Z,0.20
2023-01-26T10:54:27.216Z,0.30
2023-01-26T10:56:59.629Z,0.30
2023-01-26T10:59:31.136Z,0.30
2023-01-26T11:02:19.377Z,0.20
2023-01-26T11:05:04.579Z,0.00
2023-01-26T11:07:35.685Z,0.10
2023-01-26T11:10:31.496Z,0.10
2023-01-26T11:13:16.561Z,0.30
2023-01-26T11:16:00.649Z,0.30
2023-01-26T11:18:55.424Z,0.30
2023-01-26T11:21:40.185Z,0.40
2023-01-26T11:24:26.620Z,0.20
2023-01-26T11:27:01.305Z,0.10
2023-01-26T11:29:46.498Z,0.20
2023-01-26T11:32:39.783Z,0.10
2023-01-26T11:35:39.745Z,0.20
2023-01-26T11:38:35.086Z,0.20
2023-01-26T11:41:24.476Z,0.20
2023-01-26T11:44:30.886Z,0.20
2023-01-26T11:47:22.614Z,0.20
2023-01-26T11:50:26.177Z,0.30
2023-01-26T11:53:30.781Z,0.30
2023-01-26T11:56:18.562Z,0.40
2023-01-26T11:59:17.213Z,0.40
2023-01-26T12:02:14.140Z,0.50
2023-01-26T12:04:45.435Z,0.50
2023-01-26T12:07:15.427Z,0.60
2023-01-26T12:09:46.804Z,0.50
2023-01-26T12:12:32.524Z,0.50
2023-01-26T12:15:42.630Z,0.40
2023-01-26T12:18:09.840Z,0.50
2023-01-26T12:20:42.012Z,0.50
2023-01-26T12:23:08.590Z,0.50
2023-01-26T12:25:47.973Z,0.60
2023-01-26T12:29:09.209Z,0.60
2023-01-26T12:32:03.053Z,0.60
2023-01-26T12:34:33.767Z,0.70
2023-01-26T12:37:06.449Z,0.60
2023-01-26T12:39:39.765Z,0.70
2023-01-26T12:42:17.509Z,0.60
2023-01-26T12:44:51.008Z,0.70
2023-01-26T12:47:20.254Z,0.70
2023-01-26T12:50:08.517Z,0.60
2023-01-26T12:53:04.942Z,0.70
2023-01-26T12:55:43.210Z,0.60
2023-01-26T12:58:25.796Z,0.70
2023-01-26T13:01:14.663Z,0.70
2023-01-26T13:03:45.522Z,0.80
2023-01-26T13:06:15.290Z,0.80
2023-01-26T13:08:53.412Z,0.80
2023-01-26T13:11:39.037Z,0.70
2023-01-26T13:14:28.297Z,0.70
2023-01-26T13:16:55.627Z,0.90
2023-01-26T13:19:52.901Z,0.80
2023-01-26T13:22:19.579Z,0.80
2023-01-26T13:24:48.691Z,0.90
2023-01-26T13:27:37.489Z,0.90
2023-01-26T13:30:27.018Z,0.80
2023-01-26T13:33:24.772Z,0.70
2023-01-26T13:35:53.985Z,0.70
2023-01-26T13:38:24.600Z,0.80
2023-01-26T13:40:51.355Z,0.80
2023-01-26T13:43:30.242Z,0.90
2023-01-26T13:46:22.003Z,0.90
2023-01-26T13:48:51.101Z,0.90
2023-01-26T13:51:26.568Z,1.00
2023-01-26T13:54:01.907Z,1.00
2023-01-26T13:56:34.525Z,1.10
2023-01-26T13:59:20.707Z,1.10
2023-01-26T14:01:53.241Z,1.20
2023-01-26T14:04:22.995Z,1.20
2023-01-26T14:07:02.269Z,1.20
2023-01-26T14:09:32.560Z,1.20
2023-01-26T14:12:01.905Z,1.20
2023-01-26T14:14:32.875Z,1.30
2023-01-26T14:17:00.445Z,1.30
2023-01-26T14:19:28.439Z,1.20
2023-01-26T14:22:00.397Z,1.20
2023-01-26T14:24:39.475Z,1.20
2023-01-26T14:27:20.674Z,1.20
2023-01-26T14:29:47.839Z,1.30
2023-01-26T14:32:16.960Z,1.30
2023-01-26T14:34:55.154Z,1.40
2023-01-26T14:37:22.719Z,1.40
2023-01-26T14:39:49.987Z,1.50
2023-01-26T14:42:20.497Z,1.40
2023-01-26T14:44:47.550Z,1.50
2023-01-26T14:47:30.518Z,1.60
2023-01-26T14:50:02.648Z,1.60
2023-01-26T14:52:43.905Z,1.50
2023-01-26T14:55:24.325Z,1.40
2023-01-26T14:57:52.284Z,1.20
2023-01-26T15:00:30.760Z,1.30
2023-01-26T15:03:00.459Z,1.20
2023-01-26T15:05:36.364Z,1.30
2023-01-26T15:08:18.876Z,1.30
2023-01-26T15:11:17.324Z,1.40
2023-01-26T15:13:53.464Z,1.30
2023-01-26T15:16:22.956Z,1.30
2023-01-26T15:19:06.024Z,1.20
2023-01-26T15:21:34.291Z,1.10
2023-01-26T15:24:00.990Z,1.20
2023-01-26T15:26:33.682Z,1.20
2023-01-26T15:29:04.105Z,1.30
2023-01-26T15:31:37.036Z,1.30
2023-01-26T15:34:04.118Z,1.30
2023-01-26T15:36:50.042Z,1.20
2023-01-26T15:39:18.726Z,1.20
2023-01-26T15:41:59.498Z,1.00
2023-01-26T15:44:26.217Z,0.80
2023-01-26T15:46:53.012Z,0.90
2023-01-26T15:49:22.817Z,0.90
2023-01-26T15:51:49.453Z,0.90
2023-01-26T15:54:16.085Z,0.90
2023-01-26T15:56:43.112Z,0.90
2023-01-26T15:59:09.757Z,1.00
2023-01-26T16:01:36.481Z,1.00
2023-01-26T16:04:04.531Z,0.90
2023-01-26T16:06:33.147Z,0.90
2023-01-26T16:08:59.750Z,0.80
2023-01-26T16:11:33.931Z,0.90
2023-01-26T16:14:04.135Z,0.90
2023-01-26T16:16:32.736Z,0.90
2023-01-26T16:18:59.697Z,0.90
2023-01-26T16:21:31.330Z,0.90
2023-01-26T16:23:58.192Z,0.80
2023-01-26T16:26:26.058Z,0.90
2023-01-26T16:28:52.629Z,1.00
2023-01-26T16:31:25.581Z,1.00
2023-01-26T16:33:52.740Z,0.90
2023-01-26T16:36:22.642Z,0.90
2023-01-26T16:38:49.745Z,0.90
2023-01-26T16:41:29.334Z,0.90
2023-01-26T16:43:58.217Z,0.90
2023-01-26T16:46:26.157Z,0.90
2023-01-26T16:48:53.715Z,0.90
2023-01-26T16:51:24.691Z,1.00
2023-01-26T16:53:52.674Z,0.90
2023-01-26T16:56:19.466Z,0.90
2023-01-26T16:58:46.604Z,0.90
2023-01-26T17:01:19.304Z,0.90
2023-01-26T17:03:46.961Z,1.00
2023-01-26T17:06:14.134Z,1.00
2023-01-26T17:08:40.993Z,1.00
2023-01-26T17:11:18.822Z,1.00
2023-01-26T17:13:45.485Z,1.00
2023-01-26T17:16:17.960Z,1.00
2023-01-26T17:18:47.956Z,1.00
2023-01-26T17:21:17.231Z,1.00
2023-01-26T17:23:44.710Z,1.00
2023-01-26T17:26:15.175Z,1.00
2023-01-26T17:28:41.995Z,1.10
2023-01-26T17:31:14.229Z,1.00
2023-01-26T17:33:40.853Z,1.00
2023-01-26T17:36:07.852Z,1.10
2023-01-26T17:38:34.625Z,1.00
2023-01-26T17:41:01.295Z,1.00
2023-01-26T17:43:28.448Z,1.10
2023-01-26T17:46:06.908Z,1.10
2023-01-26T17:48:36.063Z,1.00
2023-01-26T17:51:06.263Z,1.00
2023-01-26T17:53:33.453Z,1.00
2023-01-26T17:56:00.135Z,1.00
2023-01-26T17:58:26.928Z,1.00
2023-01-26T18:00:53.667Z,1.00
2023-01-26T18:03:26.074Z,1.00
2023-01-26T18:05:53.563Z,1.00
2023-01-26T18:08:20.547Z,1.00
2023-01-26T18:10:50.384Z,1.00
2023-01-26T18:13:17.062Z,1.00
2023-01-26T18:15:45.400Z,1.00
2023-01-26T18:18:13.257Z,1.00
2023-01-26T18:20:40.071Z,1.10
2023-01-26T18:23:06.677Z,1.00
2023-01-26T18:25:36.802Z,1.00
2023-01-26T18:28:03.432Z,1.00
2023-01-26T18:30:30.252Z,1.00
2023-01-26T18:32:56.935Z,1.20
2023-01-26T18:35:23.626Z,1.10
2023-01-26T18:37:50.209Z,1.20
2023-01-26T18:40:17.863Z,1.20
2023-01-26T18:42:44.603Z,1.20
2023-01-26T18:45:12.022Z,1.20
2023-01-26T18:47:39.098Z,1.20
2023-01-26T18:50:06.405Z,1.20
2023-01-26T18:52:33.221Z,1.10
2023-01-26T18:54:59.945Z,1.00
2023-01-26T18:57:26.539Z,1.10
2023-01-26T18:59:53.295Z,1.20
2023-01-26T19:02:20.124Z,1.20
2023-01-26T19:04:46.814Z,1.20
2023-01-26T19:07:15.241Z,1.10
2023-01-26T19:09:41.954Z,1.20
2023-01-26T19:12:08.681Z,1.20
2023-01-26T19:14:35.456Z,1.10
2023-01-26T19:17:02.306Z,1.10
2023-01-26T19:19:29.406Z,1.20
2023-01-26T19:21:56.024Z,1.10
2023-01-26T19:24:23.156Z,1.20
2023-01-26T19:26:49.828Z,1.20
2023-01-26T19:29:16.480Z,1.10
2023-01-26T19:31:43.373Z,1.10
2023-01-26T19:34:14.045Z,1.10
2023-01-26T19:36:40.947Z,1.00
2023-01-26T19:39:07.685Z,1.10
2023-01-26T19:41:34.810Z,1.00
2023-01-26T19:44:01.696Z,1.10
2023-01-26T19:46:28.439Z,1.00
2023-01-26T19:48:55.139Z,1.10
2023-01-26T19:51:24.219Z,1.10
2023-01-26T19:53:56.320Z,1.20
2023-01-26T19:56:29.208Z,1.20
2023-01-26T19:58:58.037Z,1.30
2023-01-26T20:01:27.066Z,1.20
2023-01-26T20:04:00.127Z,1.20
2023-01-26T20:06:32.057Z,1.20
2023-01-26T20:08:59.413Z,1.20
2023-01-26T20:11:28.818Z,1.20
2023-01-26T20:14:00.461Z,1.30
2023-01-26T20:16:28.351Z,1.30
2023-01-26T20:18:56.426Z,1.20
2023-01-26T20:21:23.966Z,1.20
2023-01-26T20:23:54.764Z,1.20
2023-01-26T20:26:23.373Z,1.10
2023-01-26T20:28:50.039Z,1.20
2023-01-26T20:31:19.788Z,1.10
2023-01-26T20:33:48.044Z,1.20
2023-01-26T20:36:17.592Z,1.10
2023-01-26T20:38:45.063Z,1.10
2023-01-26T20:41:14.909Z,1.10
2023-01-26T20:43:58.275Z,1.10
2023-01-26T20:46:27.858Z,1.10
2023-01-26T20:48:55.941Z,1.20
2023-01-26T20:51:26.826Z,1.20
2023-01-26T20:53:53.403Z,1.20
2023-01-26T20:56:21.428Z,1.20
2023-01-26T20:58:51.189Z,1.00
2023-01-26T21:01:18.633Z,1.10
2023-01-26T21:03:45.977Z,1.20
2023-01-26T21:06:15.286Z,1.20
2023-01-26T21:08:42.220Z,1.30
2023-01-26T21:11:12.480Z,1.20
2023-01-26T21:13:42.489Z,1.20
2023-01-26T21:16:12.084Z,1.20
2023-01-26T21:18:38.884Z,1.30
2023-01-26T21:21:07.863Z,1.20
2023-01-26T21:23:35.194Z,1.20
2023-01-26T21:26:04.942Z,1.20
2023-01-26T21:28:32.407Z,1.20
2023-01-26T21:34:46.920Z,1.30
2023-01-26T21:37:13.451Z,1.30
2023-01-26T21:39:40.121Z,1.40
2023-01-26T21:42:06.705Z,1.30
2023-01-26T21:44:53.724Z,1.30
2023-01-26T21:47:20.529Z,1.30
2023-01-26T21:49:47.663Z,1.30
2023-01-26T21:52:32.918Z,1.30
2023-01-26T21:54:59.704Z,1.40
2023-01-26T21:57:44.980Z,1.40
2023-01-26T22:00:12.284Z,1.40
2023-01-26T22:02:39.348Z,1.40
2023-01-26T22:05:06.317Z,1.40
2023-01-26T22:07:33.090Z,1.40
2023-01-26T22:09:59.696Z,1.40
2023-01-26T22:12:26.283Z,1.30
2023-01-26T22:14:55.012Z,1.30
2023-01-26T22:17:21.674Z,1.30
2023-01-26T22:19:48.558Z,1.30
2023-01-26T22:22:15.203Z,1.40
2023-01-26T22:24:41.731Z,1.30
2023-01-26T22:27:08.532Z,1.40
2023-01-26T22:29:35.261Z,1.40
2023-01-26T22:32:02.597Z,1.40
2023-01-26T22:34:29.436Z,1.50
2023-01-26T22:36:56.180Z,1.50
2023-01-26T22:39:22.715Z,1.50
2023-01-26T22:41:49.433Z,1.40
2023-01-26T22:44:16.110Z,1.40
2023-01-26T22:46:42.772Z,1.50
2023-01-26T22:49:10.223Z,1.50
2023-01-26T22:51:37.415Z,1.40
2023-01-26T22:54:05.035Z,1.40
2023-01-26T22:56:31.915Z,1.50
2023-01-26T22:59:00.648Z,1.50
2023-01-26T23:01:32.692Z,1.40
2023-01-26T23:04:00.736Z,1.30
2023-01-26T23:06:27.962Z,1.30
2023-01-26T23:08:55.094Z,1.30
2023-01-26T23:11:24.655Z,1.30
2023-01-26T23:13:52.562Z,1.30
2023-01-26T23:16:21.192Z,1.30
2023-01-26T23:18:47.904Z,1.40
2023-01-26T23:21:15.280Z,1.40
2023-01-26T23:23:42.088Z,1.30
2023-01-26T23:26:10.073Z,1.30
2023-01-26T23:28:39.989Z,1.30
2023-01-26T23:31:07.447Z,1.40
2023-01-26T23:33:35.496Z,1.30
2023-01-26T23:36:03.416Z,1.40
2023-01-26T23:38:30.973Z,1.40
2023-01-26T23:40:57.995Z,1.40
2023-01-26T23:43:24.622Z,1.30
2023-01-26T23:45:51.773Z,1.30
2023-01-26T23:48:19.188Z,1.30
2023-01-26T23:50:46.230Z,1.40
2023-01-26T23:53:13.279Z,1.40
2023-01-26T23:55:41.833Z,1.50
2023-01-26T23:58:09.083Z,1.50
